sensor_id;sensor_type;location;lat;lon;timestamp;temperature;humidity
47350;DHT22;33088;51.982;5.872;2023-02-10T00:00:21;1.60;99.90
47350;DHT22;33088;51.982;5.872;2023-02-10T00:02:47;1.60;99.90
47350;DHT22;33088;51.982;5.872;2023-02-10T00:05:12;1.60;99.90
47350;DHT22;33088;51.982;5.872;2023-02-10T00:07:38;1.60;99.90
47350;DHT22;33088;51.982;5.872;2023-02-10T00:10:04;1.60;99.90
47350;DHT22;33088;51.982;5.872;2023-02-10T00:12:29;1.60;99.90
47350;DHT22;33088;51.982;5.872;2023-02-10T00:14:55;1.60;99.90
47350;DHT22;33088;51.982;5.872;2023-02-10T00:17:21;1.60;99.90
47350;DHT22;33088;51.982;5.872;2023-02-10T00:19:46;1.60;99.90
47350;DHT22;33088;51.982;5.872;2023-02-10T00:22:12;1.60;99.90
47350;DHT22;33088;51.982;5.872;2023-02-10T00:24:37;1.50;99.90
47350;DHT22;33088;51.982;5.872;2023-02-10T00:27:03;1.50;99.90
47350;DHT22;33088;51.982;5.872;2023-02-10T00:29:29;1.60;99.90
47350;DHT22;33088;51.982;5.872;2023-02-10T00:31:56;1.50;99.90
47350;DHT22;33088;51.982;5.872;2023-02-10T00:34:22;1.60;99.90
47350;DHT22;33088;51.982;5.872;2023-02-10T00:36:49;1.50;99.90
47350;DHT22;33088;51.982;5.872;2023-02-10T00:39:17;1.50;99.90
47350;DHT22;33088;51.982;5.872;2023-02-10T00:41:43;1.50;99.90
47350;DHT22;33088;51.982;5.872;2023-02-10T00:44:09;1.50;99.90
47350;DHT22;33088;51.982;5.872;2023-02-10T00:46:35;1.50;99.90
47350;DHT22;33088;51.982;5.872;2023-02-10T00:49:01;1.40;99.90
47350;DHT22;33088;51.982;5.872;2023-02-10T00:51:27;1.50;99.90
47350;DHT22;33088;51.982;5.872;2023-02-10T00:53:52;1.50;99.90
47350;DHT22;33088;51.982;5.872;2023-02-10T00:56:20;1.50;99.90
47350;DHT22;33088;51.982;5.872;2023-02-10T00:58:46;1.50;99.90
47350;DHT22;33088;51.982;5.872;2023-02-10T01:01:12;1.50;99.90
47350;DHT22;33088;51.982;5.872;2023-02-10T01:03:38;1.50;99.90
47350;DHT22;33088;51.982;5.872;2023-02-10T01:06:04;1.50;99.90
47350;DHT22;33088;51.982;5.872;2023-02-10T01:08:30;1.50;99.90
47350;DHT22;33088;51.982;5.872;2023-02-10T01:11:00;1.50;99.90
47350;DHT22;33088;51.982;5.872;2023-02-10T01:13:26;1.50;99.90
47350;DHT22;33088;51.982;5.872;2023-02-10T01:15:52;1.40;99.90
47350;DHT22;33088;51.982;5.872;2023-02-10T01:18:18;1.30;99.90
47350;DHT22;33088;51.982;5.872;2023-02-10T01:20:43;1.40;99.90
47350;DHT22;33088;51.982;5.872;2023-02-10T01:23:09;1.30;99.90
47350;DHT22;33088;51.982;5.872;2023-02-10T01:25:36;1.30;99.90
47350;DHT22;33088;51.982;5.872;2023-02-10T01:28:02;1.30;99.90
47350;DHT22;33088;51.982;5.872;2023-02-10T01:30:28;1.30;99.90
47350;DHT22;33088;51.982;5.872;2023-02-10T01:32:54;1.30;99.90
47350;DHT22;33088;51.982;5.872;2023-02-10T01:35:20;1.30;99.90
47350;DHT22;33088;51.982;5.872;2023-02-10T01:37:46;1.30;99.90
47350;DHT22;33088;51.982;5.872;2023-02-10T01:40:12;1.30;99.90
47350;DHT22;33088;51.982;5.872;2023-02-10T01:42:37;1.20;99.90
47350;DHT22;33088;51.982;5.872;2023-02-10T01:45:29;1.20;99.90
47350;DHT22;33088;51.982;5.872;2023-02-10T01:47:56;1.10;99.90
47350;DHT22;33088;51.982;5.872;2023-02-10T01:50:26;1.20;99.90
47350;DHT22;33088;51.982;5.872;2023-02-10T01:52:53;1.10;99.90
47350;DHT22;33088;51.982;5.872;2023-02-10T01:55:22;1.10;99.90
47350;DHT22;33088;51.982;5.872;2023-02-10T01:57:49;1.10;99.90
47350;DHT22;33088;51.982;5.872;2023-02-10T02:00:20;1.10;99.90
47350;DHT22;33088;51.982;5.872;2023-02-10T02:02:46;1.10;99.90
47350;DHT22;33088;51.982;5.872;2023-02-10T02:07:50;1.10;99.90
47350;DHT22;33088;51.982;5.872;2023-02-10T02:10:16;1.00;99.90
47350;DHT22;33088;51.982;5.872;2023-02-10T02:12:44;1.00;99.90
47350;DHT22;33088;51.982;5.872;2023-02-10T02:15:31;1.00;99.90
47350;DHT22;33088;51.982;5.872;2023-02-10T02:18:10;1.00;99.90
47350;DHT22;33088;51.982;5.872;2023-02-10T02:29:38;1.10;99.90
47350;DHT22;33088;51.982;5.872;2023-02-10T02:31:56;1.00;99.90
47350;DHT22;33088;51.982;5.872;2023-02-10T02:37:19;1.00;99.90
47350;DHT22;33088;51.982;5.872;2023-02-10T02:39:49;0.90;99.90
47350;DHT22;33088;51.982;5.872;2023-02-10T02:42:18;0.90;99.90
47350;DHT22;33088;51.982;5.872;2023-02-10T02:44:47;0.90;99.90
47350;DHT22;33088;51.982;5.872;2023-02-10T02:47:44;0.90;99.90
47350;DHT22;33088;51.982;5.872;2023-02-10T02:50:32;0.90;99.90
47350;DHT22;33088;51.982;5.872;2023-02-10T02:57:18;0.90;99.90
47350;DHT22;33088;51.982;5.872;2023-02-10T03:02:03;0.90;99.90
47350;DHT22;33088;51.982;5.872;2023-02-10T03:04:31;0.90;99.90
47350;DHT22;33088;51.982;5.872;2023-02-10T03:07:00;0.90;99.90
47350;DHT22;33088;51.982;5.872;2023-02-10T03:09:27;0.90;99.90
47350;DHT22;33088;51.982;5.872;2023-02-10T03:11:53;0.80;99.90
47350;DHT22;33088;51.982;5.872;2023-02-10T03:14:19;0.80;99.90
47350;DHT22;33088;51.982;5.872;2023-02-10T03:16:44;0.80;99.90
47350;DHT22;33088;51.982;5.872;2023-02-10T03:19:10;0.80;99.90
47350;DHT22;33088;51.982;5.872;2023-02-10T03:21:36;0.80;99.90
47350;DHT22;33088;51.982;5.872;2023-02-10T03:24:02;0.80;99.90
47350;DHT22;33088;51.982;5.872;2023-02-10T03:26:28;0.80;99.90
47350;DHT22;33088;51.982;5.872;2023-02-10T03:28:54;0.70;99.90
47350;DHT22;33088;51.982;5.872;2023-02-10T03:31:20;0.70;99.90
47350;DHT22;33088;51.982;5.872;2023-02-10T03:33:46;0.60;99.90
47350;DHT22;33088;51.982;5.872;2023-02-10T03:36:12;0.50;99.90
47350;DHT22;33088;51.982;5.872;2023-02-10T03:38:37;0.50;99.90
47350;DHT22;33088;51.982;5.872;2023-02-10T03:41:04;0.50;99.90
47350;DHT22;33088;51.982;5.872;2023-02-10T03:43:29;0.50;99.90
47350;DHT22;33088;51.982;5.872;2023-02-10T03:45:58;0.40;99.90
47350;DHT22;33088;51.982;5.872;2023-02-10T03:48:24;0.50;99.90
47350;DHT22;33088;51.982;5.872;2023-02-10T03:50:52;0.50;99.90
47350;DHT22;33088;51.982;5.872;2023-02-10T03:53:17;0.40;99.90
47350;DHT22;33088;51.982;5.872;2023-02-10T03:55:43;0.40;99.90
47350;DHT22;33088;51.982;5.872;2023-02-10T03:58:08;0.40;99.90
47350;DHT22;33088;51.982;5.872;2023-02-10T04:00:34;0.30;99.90
47350;DHT22;33088;51.982;5.872;2023-02-10T04:02:59;0.30;99.90
47350;DHT22;33088;51.982;5.872;2023-02-10T04:05:25;0.30;99.90
47350;DHT22;33088;51.982;5.872;2023-02-10T04:07:51;0.30;99.90
47350;DHT22;33088;51.982;5.872;2023-02-10T04:10:16;0.30;99.90
47350;DHT22;33088;51.982;5.872;2023-02-10T04:12:42;0.30;99.90
47350;DHT22;33088;51.982;5.872;2023-02-10T04:15:08;0.30;99.90
47350;DHT22;33088;51.982;5.872;2023-02-10T04:17:34;0.30;99.90
47350;DHT22;33088;51.982;5.872;2023-02-10T04:19:59;0.30;99.90
47350;DHT22;33088;51.982;5.872;2023-02-10T04:22:25;0.30;99.90
47350;DHT22;33088;51.982;5.872;2023-02-10T04:24:50;0.40;99.90
47350;DHT22;33088;51.982;5.872;2023-02-10T04:27:18;0.40;99.90
47350;DHT22;33088;51.982;5.872;2023-02-10T04:29:44;0.30;99.90
47350;DHT22;33088;51.982;5.872;2023-02-10T04:32:10;0.30;99.90
47350;DHT22;33088;51.982;5.872;2023-02-10T04:34:35;0.30;99.90
47350;DHT22;33088;51.982;5.872;2023-02-10T04:37:01;0.20;99.90
47350;DHT22;33088;51.982;5.872;2023-02-10T04:39:27;0.20;99.90
47350;DHT22;33088;51.982;5.872;2023-02-10T04:41:52;0.20;99.90
47350;DHT22;33088;51.982;5.872;2023-02-10T04:44:18;0.20;99.90
47350;DHT22;33088;51.982;5.872;2023-02-10T04:46:44;0.20;99.90
47350;DHT22;33088;51.982;5.872;2023-02-10T04:49:09;0.20;99.90
47350;DHT22;33088;51.982;5.872;2023-02-10T04:51:35;0.20;99.90
47350;DHT22;33088;51.982;5.872;2023-02-10T04:54:00;0.30;99.90
47350;DHT22;33088;51.982;5.872;2023-02-10T04:56:26;0.30;99.90
47350;DHT22;33088;51.982;5.872;2023-02-10T04:58:52;0.30;99.90
47350;DHT22;33088;51.982;5.872;2023-02-10T05:01:17;0.30;99.90
47350;DHT22;33088;51.982;5.872;2023-02-10T05:03:43;0.30;99.90
47350;DHT22;33088;51.982;5.872;2023-02-10T05:06:11;0.30;99.90
47350;DHT22;33088;51.982;5.872;2023-02-10T05:08:37;0.30;99.90
47350;DHT22;33088;51.982;5.872;2023-02-10T05:11:16;0.30;99.90
47350;DHT22;33088;51.982;5.872;2023-02-10T05:13:42;0.30;99.90
47350;DHT22;33088;51.982;5.872;2023-02-10T05:16:09;0.30;99.90
47350;DHT22;33088;51.982;5.872;2023-02-10T05:18:36;0.30;99.90
47350;DHT22;33088;51.982;5.872;2023-02-10T05:21:02;0.30;99.90
47350;DHT22;33088;51.982;5.872;2023-02-10T05:23:29;0.30;99.90
47350;DHT22;33088;51.982;5.872;2023-02-10T05:25:54;0.30;99.90
47350;DHT22;33088;51.982;5.872;2023-02-10T05:28:21;0.30;99.90
47350;DHT22;33088;51.982;5.872;2023-02-10T05:30:47;0.30;99.90
47350;DHT22;33088;51.982;5.872;2023-02-10T05:33:12;0.20;99.90
47350;DHT22;33088;51.982;5.872;2023-02-10T05:35:38;0.10;99.90
47350;DHT22;33088;51.982;5.872;2023-02-10T05:38:04;0.00;99.90
47350;DHT22;33088;51.982;5.872;2023-02-10T05:40:30;0.00;99.90
47350;DHT22;33088;51.982;5.872;2023-02-10T05:42:56;0.10;99.90
47350;DHT22;33088;51.982;5.872;2023-02-10T05:45:22;0.10;99.90
47350;DHT22;33088;51.982;5.872;2023-02-10T05:47:48;0.10;99.90
47350;DHT22;33088;51.982;5.872;2023-02-10T05:50:14;0.00;99.90
47350;DHT22;33088;51.982;5.872;2023-02-10T05:52:40;0.00;99.90
47350;DHT22;33088;51.982;5.872;2023-02-10T05:55:06;0.10;99.90
47350;DHT22;33088;51.982;5.872;2023-02-10T05:57:32;0.10;99.90
47350;DHT22;33088;51.982;5.872;2023-02-10T05:59:57;0.00;99.90
47350;DHT22;33088;51.982;5.872;2023-02-10T06:02:23;0.00;99.90
47350;DHT22;33088;51.982;5.872;2023-02-10T06:04:49;-0.10;99.90
47350;DHT22;33088;51.982;5.872;2023-02-10T06:07:15;-0.10;99.90
47350;DHT22;33088;51.982;5.872;2023-02-10T06:09:41;0.00;99.90
47350;DHT22;33088;51.982;5.872;2023-02-10T06:12:07;-0.10;99.90
47350;DHT22;33088;51.982;5.872;2023-02-10T06:14:33;-0.10;99.90
47350;DHT22;33088;51.982;5.872;2023-02-10T06:17:01;-0.10;99.90
47350;DHT22;33088;51.982;5.872;2023-02-10T06:19:26;-0.10;99.90
47350;DHT22;33088;51.982;5.872;2023-02-10T06:21:52;0.00;99.90
47350;DHT22;33088;51.982;5.872;2023-02-10T06:24:18;-0.10;99.90
47350;DHT22;33088;51.982;5.872;2023-02-10T06:26:43;-0.10;99.90
47350;DHT22;33088;51.982;5.872;2023-02-10T06:29:09;-0.10;99.90
47350;DHT22;33088;51.982;5.872;2023-02-10T06:31:35;0.00;99.90
47350;DHT22;33088;51.982;5.872;2023-02-10T06:34:00;0.00;99.90
47350;DHT22;33088;51.982;5.872;2023-02-10T06:36:26;-0.10;99.90
47350;DHT22;33088;51.982;5.872;2023-02-10T06:38:51;0.10;99.90
47350;DHT22;33088;51.982;5.872;2023-02-10T06:41:17;0.10;99.90
47350;DHT22;33088;51.982;5.872;2023-02-10T06:43:43;0.10;99.90
47350;DHT22;33088;51.982;5.872;2023-02-10T06:46:09;0.10;99.90
47350;DHT22;33088;51.982;5.872;2023-02-10T06:48:36;0.10;99.90
47350;DHT22;33088;51.982;5.872;2023-02-10T06:51:02;0.20;99.90
47350;DHT22;33088;51.982;5.872;2023-02-10T06:53:27;0.20;99.90
47350;DHT22;33088;51.982;5.872;2023-02-10T06:55:56;0.10;99.90
47350;DHT22;33088;51.982;5.872;2023-02-10T06:58:22;0.20;99.90
47350;DHT22;33088;51.982;5.872;2023-02-10T07:00:48;0.20;99.90
47350;DHT22;33088;51.982;5.872;2023-02-10T07:03:14;0.20;99.90
47350;DHT22;33088;51.982;5.872;2023-02-10T07:05:40;0.20;99.90
47350;DHT22;33088;51.982;5.872;2023-02-10T07:08:06;0.20;99.90
47350;DHT22;33088;51.982;5.872;2023-02-10T07:10:32;0.20;99.90
47350;DHT22;33088;51.982;5.872;2023-02-10T07:12:58;0.20;99.90
47350;DHT22;33088;51.982;5.872;2023-02-10T07:15:24;0.20;99.90
47350;DHT22;33088;51.982;5.872;2023-02-10T07:17:50;0.30;99.90
47350;DHT22;33088;51.982;5.872;2023-02-10T07:20:18;0.30;99.90
47350;DHT22;33088;51.982;5.872;2023-02-10T07:22:44;0.40;99.90
47350;DHT22;33088;51.982;5.872;2023-02-10T07:25:09;0.40;99.90
47350;DHT22;33088;51.982;5.872;2023-02-10T07:27:35;0.40;99.90
47350;DHT22;33088;51.982;5.872;2023-02-10T07:30:01;0.50;99.90
47350;DHT22;33088;51.982;5.872;2023-02-10T07:32:27;0.50;99.90
47350;DHT22;33088;51.982;5.872;2023-02-10T07:34:53;0.50;99.90
47350;DHT22;33088;51.982;5.872;2023-02-10T07:37:18;0.50;99.90
47350;DHT22;33088;51.982;5.872;2023-02-10T07:39:44;0.80;99.90
47350;DHT22;33088;51.982;5.872;2023-02-10T07:42:10;0.60;99.90
47350;DHT22;33088;51.982;5.872;2023-02-10T07:44:56;0.60;99.90
47350;DHT22;33088;51.982;5.872;2023-02-10T07:47:21;0.60;99.90
47350;DHT22;33088;51.982;5.872;2023-02-10T07:49:50;0.60;99.90
47350;DHT22;33088;51.982;5.872;2023-02-10T07:52:20;0.60;99.90
47350;DHT22;33088;51.982;5.872;2023-02-10T07:54:46;0.60;99.90
47350;DHT22;33088;51.982;5.872;2023-02-10T07:57:14;0.60;99.90
47350;DHT22;33088;51.982;5.872;2023-02-10T07:59:40;0.60;99.90
47350;DHT22;33088;51.982;5.872;2023-02-10T08:02:08;0.60;99.90
47350;DHT22;33088;51.982;5.872;2023-02-10T08:04:36;0.50;99.90
47350;DHT22;33088;51.982;5.872;2023-02-10T08:07:02;0.40;99.90
47350;DHT22;33088;51.982;5.872;2023-02-10T08:09:29;0.40;99.90
47350;DHT22;33088;51.982;5.872;2023-02-10T08:11:55;0.60;99.90
47350;DHT22;33088;51.982;5.872;2023-02-10T08:14:20;0.50;99.90
47350;DHT22;33088;51.982;5.872;2023-02-10T08:16:46;0.60;99.90
47350;DHT22;33088;51.982;5.872;2023-02-10T08:19:12;0.50;99.90
47350;DHT22;33088;51.982;5.872;2023-02-10T08:21:37;0.60;99.90
47350;DHT22;33088;51.982;5.872;2023-02-10T08:24:03;0.60;99.90
47350;DHT22;33088;51.982;5.872;2023-02-10T08:26:29;0.60;99.90
47350;DHT22;33088;51.982;5.872;2023-02-10T08:28:54;0.60;99.90
47350;DHT22;33088;51.982;5.872;2023-02-10T08:31:21;0.70;99.90
47350;DHT22;33088;51.982;5.872;2023-02-10T08:33:47;0.70;99.90
47350;DHT22;33088;51.982;5.872;2023-02-10T08:36:17;0.70;99.90
47350;DHT22;33088;51.982;5.872;2023-02-10T08:38:44;0.80;99.90
47350;DHT22;33088;51.982;5.872;2023-02-10T08:41:10;0.80;99.90
47350;DHT22;33088;51.982;5.872;2023-02-10T08:43:36;0.60;99.90
47350;DHT22;33088;51.982;5.872;2023-02-10T08:46:02;0.70;99.90
47350;DHT22;33088;51.982;5.872;2023-02-10T08:48:28;0.70;99.90
47350;DHT22;33088;51.982;5.872;2023-02-10T08:50:55;0.80;99.90
47350;DHT22;33088;51.982;5.872;2023-02-10T08:53:21;0.90;99.90
47350;DHT22;33088;51.982;5.872;2023-02-10T08:56:00;0.90;99.90
47350;DHT22;33088;51.982;5.872;2023-02-10T08:58:27;0.90;99.90
47350;DHT22;33088;51.982;5.872;2023-02-10T09:00:53;1.00;99.90
47350;DHT22;33088;51.982;5.872;2023-02-10T09:03:19;1.10;99.90
47350;DHT22;33088;51.982;5.872;2023-02-10T09:05:44;1.20;99.90
47350;DHT22;33088;51.982;5.872;2023-02-10T09:08:12;1.10;99.90
47350;DHT22;33088;51.982;5.872;2023-02-10T09:10:42;1.10;99.90
47350;DHT22;33088;51.982;5.872;2023-02-10T09:13:08;1.20;99.90
47350;DHT22;33088;51.982;5.872;2023-02-10T09:15:40;1.20;99.90
47350;DHT22;33088;51.982;5.872;2023-02-10T09:18:07;1.30;99.90
47350;DHT22;33088;51.982;5.872;2023-02-10T09:20:34;1.20;99.90
47350;DHT22;33088;51.982;5.872;2023-02-10T09:23:01;1.40;99.90
47350;DHT22;33088;51.982;5.872;2023-02-10T09:25:28;1.40;99.90
47350;DHT22;33088;51.982;5.872;2023-02-10T09:27:55;1.40;99.90
47350;DHT22;33088;51.982;5.872;2023-02-10T09:30:24;1.30;99.90
47350;DHT22;33088;51.982;5.872;2023-02-10T09:32:50;1.40;99.90
47350;DHT22;33088;51.982;5.872;2023-02-10T09:35:16;1.50;99.90
47350;DHT22;33088;51.982;5.872;2023-02-10T09:37:42;1.50;99.90
47350;DHT22;33088;51.982;5.872;2023-02-10T09:40:31;1.50;99.90
47350;DHT22;33088;51.982;5.872;2023-02-10T09:45:37;1.60;99.90
47350;DHT22;33088;51.982;5.872;2023-02-10T09:51:15;1.80;99.90
47350;DHT22;33088;51.982;5.872;2023-02-10T09:53:43;1.90;99.90
47350;DHT22;33088;51.982;5.872;2023-02-10T09:56:20;2.00;99.90
47350;DHT22;33088;51.982;5.872;2023-02-10T09:58:52;2.00;99.90
47350;DHT22;33088;51.982;5.872;2023-02-10T10:01:37;2.10;99.90
47350;DHT22;33088;51.982;5.872;2023-02-10T10:04:14;2.30;99.90
47350;DHT22;33088;51.982;5.872;2023-02-10T10:06:49;2.50;99.90
47350;DHT22;33088;51.982;5.872;2023-02-10T10:11:53;2.60;99.90
47350;DHT22;33088;51.982;5.872;2023-02-10T10:14:28;2.60;99.90
47350;DHT22;33088;51.982;5.872;2023-02-10T10:25:22;2.50;99.90
47350;DHT22;33088;51.982;5.872;2023-02-10T10:30:36;2.70;99.90
47350;DHT22;33088;51.982;5.872;2023-02-10T10:33:20;2.80;99.90
47350;DHT22;33088;51.982;5.872;2023-02-10T10:35:47;2.90;99.90
47350;DHT22;33088;51.982;5.872;2023-02-10T10:38:33;2.80;99.90
47350;DHT22;33088;51.982;5.872;2023-02-10T10:41:07;2.90;99.90
47350;DHT22;33088;51.982;5.872;2023-02-10T10:43:46;3.00;99.90
47350;DHT22;33088;51.982;5.872;2023-02-10T10:46:23;3.20;99.90
47350;DHT22;33088;51.982;5.872;2023-02-10T10:48:51;3.40;99.90
47350;DHT22;33088;51.982;5.872;2023-02-10T10:51:17;3.50;99.90
47350;DHT22;33088;51.982;5.872;2023-02-10T10:53:47;3.50;99.90
47350;DHT22;33088;51.982;5.872;2023-02-10T10:59:03;3.50;99.90
47350;DHT22;33088;51.982;5.872;2023-02-10T11:01:36;3.50;99.90
47350;DHT22;33088;51.982;5.872;2023-02-10T11:04:14;3.50;99.90
47350;DHT22;33088;51.982;5.872;2023-02-10T11:06:43;3.60;99.90
47350;DHT22;33088;51.982;5.872;2023-02-10T11:09:29;3.50;99.90
47350;DHT22;33088;51.982;5.872;2023-02-10T11:12:17;3.50;99.90
47350;DHT22;33088;51.982;5.872;2023-02-10T11:14:46;3.50;99.90
47350;DHT22;33088;51.982;5.872;2023-02-10T11:17:36;3.50;99.90
47350;DHT22;33088;51.982;5.872;2023-02-10T11:22:39;3.80;99.90
47350;DHT22;33088;51.982;5.872;2023-02-10T11:27:53;4.00;99.90
47350;DHT22;33088;51.982;5.872;2023-02-10T11:30:32;4.40;99.90
47350;DHT22;33088;51.982;5.872;2023-02-10T11:32:58;4.20;99.90
47350;DHT22;33088;51.982;5.872;2023-02-10T11:35:25;4.40;99.90
47350;DHT22;33088;51.982;5.872;2023-02-10T11:38:02;4.40;99.90
47350;DHT22;33088;51.982;5.872;2023-02-10T11:40:30;4.60;99.90
47350;DHT22;33088;51.982;5.872;2023-02-10T11:42:59;4.70;99.90
47350;DHT22;33088;51.982;5.872;2023-02-10T11:45:30;4.80;99.90
47350;DHT22;33088;51.982;5.872;2023-02-10T11:48:05;5.00;99.90
47350;DHT22;33088;51.982;5.872;2023-02-10T11:50:33;5.20;99.90
47350;DHT22;33088;51.982;5.872;2023-02-10T11:53:00;5.30;99.90
47350;DHT22;33088;51.982;5.872;2023-02-10T11:55:37;5.30;99.90
47350;DHT22;33088;51.982;5.872;2023-02-10T12:07:15;5.80;99.90
47350;DHT22;33088;51.982;5.872;2023-02-10T12:14:58;6.00;99.90
47350;DHT22;33088;51.982;5.872;2023-02-10T12:17:31;6.10;99.90
47350;DHT22;33088;51.982;5.872;2023-02-10T12:25:52;6.20;99.90
47350;DHT22;33088;51.982;5.872;2023-02-10T12:31:31;6.30;99.90
47350;DHT22;33088;51.982;5.872;2023-02-10T12:52:46;6.80;99.90
47350;DHT22;33088;51.982;5.872;2023-02-10T12:55:24;6.90;99.90
47350;DHT22;33088;51.982;5.872;2023-02-10T12:58:15;7.00;99.90
47350;DHT22;33088;51.982;5.872;2023-02-10T13:00:48;7.10;99.90
47350;DHT22;33088;51.982;5.872;2023-02-10T13:03:26;7.20;99.90
47350;DHT22;33088;51.982;5.872;2023-02-10T13:08:48;7.20;99.90
47350;DHT22;33088;51.982;5.872;2023-02-10T13:11:29;7.40;99.90
47350;DHT22;33088;51.982;5.872;2023-02-10T13:13:59;7.30;99.90
47350;DHT22;33088;51.982;5.872;2023-02-10T13:16:32;7.40;99.90
47350;DHT22;33088;51.982;5.872;2023-02-10T13:19:46;7.50;99.90
47350;DHT22;33088;51.982;5.872;2023-02-10T13:22:22;7.50;99.90
47350;DHT22;33088;51.982;5.872;2023-02-10T13:25:09;7.60;99.90
47350;DHT22;33088;51.982;5.872;2023-02-10T13:36:18;7.50;99.90
47350;DHT22;33088;51.982;5.872;2023-02-10T13:39:13;7.50;99.90
47350;DHT22;33088;51.982;5.872;2023-02-10T13:41:42;7.50;99.90
47350;DHT22;33088;51.982;5.872;2023-02-10T13:46:52;7.30;99.90
47350;DHT22;33088;51.982;5.872;2023-02-10T13:49:20;7.20;99.90
47350;DHT22;33088;51.982;5.872;2023-02-10T13:51:46;7.20;99.90
47350;DHT22;33088;51.982;5.872;2023-02-10T13:54:31;7.30;99.90
47350;DHT22;33088;51.982;5.872;2023-02-10T13:56:57;7.30;99.90
47350;DHT22;33088;51.982;5.872;2023-02-10T13:59:47;7.40;99.90
47350;DHT22;33088;51.982;5.872;2023-02-10T14:02:22;7.30;99.90
47350;DHT22;33088;51.982;5.872;2023-02-10T14:04:54;7.20;99.90
47350;DHT22;33088;51.982;5.872;2023-02-10T14:12:54;7.20;99.90
47350;DHT22;33088;51.982;5.872;2023-02-10T14:15:27;7.20;99.90
47350;DHT22;33088;51.982;5.872;2023-02-10T14:20:35;7.10;99.90
47350;DHT22;33088;51.982;5.872;2023-02-10T14:23:02;7.10;99.90
47350;DHT22;33088;51.982;5.872;2023-02-10T14:25:37;7.20;99.90
47350;DHT22;33088;51.982;5.872;2023-02-10T14:28:05;7.10;99.90
47350;DHT22;33088;51.982;5.872;2023-02-10T14:30:43;7.20;99.90
47350;DHT22;33088;51.982;5.872;2023-02-10T14:33:24;7.10;99.90
47350;DHT22;33088;51.982;5.872;2023-02-10T14:35:53;7.10;99.90
47350;DHT22;33088;51.982;5.872;2023-02-10T14:38:22;7.00;99.90
47350;DHT22;33088;51.982;5.872;2023-02-10T14:40:48;7.00;99.90
47350;DHT22;33088;51.982;5.872;2023-02-10T14:43:19;6.90;99.90
47350;DHT22;33088;51.982;5.872;2023-02-10T14:45:45;6.80;99.90
47350;DHT22;33088;51.982;5.872;2023-02-10T14:48:13;6.80;99.90
47350;DHT22;33088;51.982;5.872;2023-02-10T14:50:39;6.80;99.90
47350;DHT22;33088;51.982;5.872;2023-02-10T14:53:05;6.90;99.90
47350;DHT22;33088;51.982;5.872;2023-02-10T14:55:35;7.00;99.90
47350;DHT22;33088;51.982;5.872;2023-02-10T14:58:15;7.10;99.90
47350;DHT22;33088;51.982;5.872;2023-02-10T15:01:14;7.10;99.90
47350;DHT22;33088;51.982;5.872;2023-02-10T15:03:41;7.00;99.90
47350;DHT22;33088;51.982;5.872;2023-02-10T15:06:07;6.80;99.90
47350;DHT22;33088;51.982;5.872;2023-02-10T15:08:45;6.80;99.90
47350;DHT22;33088;51.982;5.872;2023-02-10T15:11:24;6.80;99.90
47350;DHT22;33088;51.982;5.872;2023-02-10T15:14:18;6.70;99.90
47350;DHT22;33088;51.982;5.872;2023-02-10T15:16:46;6.60;99.90
47350;DHT22;33088;51.982;5.872;2023-02-10T15:19:16;6.60;99.90
47350;DHT22;33088;51.982;5.872;2023-02-10T15:21:47;6.50;99.90
47350;DHT22;33088;51.982;5.872;2023-02-10T15:24:24;6.60;99.90
47350;DHT22;33088;51.982;5.872;2023-02-10T15:26:50;6.50;99.90
47350;DHT22;33088;51.982;5.872;2023-02-10T15:29:17;6.40;99.90
47350;DHT22;33088;51.982;5.872;2023-02-10T15:31:52;6.60;99.90
47350;DHT22;33088;51.982;5.872;2023-02-10T15:34:27;6.30;99.90
47350;DHT22;33088;51.982;5.872;2023-02-10T15:37:01;6.30;99.90
47350;DHT22;33088;51.982;5.872;2023-02-10T15:39:36;6.30;99.90
47350;DHT22;33088;51.982;5.872;2023-02-10T15:44:39;6.20;99.90
47350;DHT22;33088;51.982;5.872;2023-02-10T15:49:48;6.00;99.90
47350;DHT22;33088;51.982;5.872;2023-02-10T15:52:21;5.90;99.90
47350;DHT22;33088;51.982;5.872;2023-02-10T15:54:47;5.90;99.90
47350;DHT22;33088;51.982;5.872;2023-02-10T15:57:16;5.90;99.90
47350;DHT22;33088;51.982;5.872;2023-02-10T15:59:41;5.90;99.90
47350;DHT22;33088;51.982;5.872;2023-02-10T16:02:12;5.90;99.90
47350;DHT22;33088;51.982;5.872;2023-02-10T16:04:39;5.90;99.90
47350;DHT22;33088;51.982;5.872;2023-02-10T16:07:17;6.00;99.90
47350;DHT22;33088;51.982;5.872;2023-02-10T16:09:43;5.90;99.90
47350;DHT22;33088;51.982;5.872;2023-02-10T16:12:09;6.00;99.90
47350;DHT22;33088;51.982;5.872;2023-02-10T16:14:35;5.90;99.90
47350;DHT22;33088;51.982;5.872;2023-02-10T16:17:00;6.00;99.90
47350;DHT22;33088;51.982;5.872;2023-02-10T16:19:27;6.00;99.90
47350;DHT22;33088;51.982;5.872;2023-02-10T16:21:53;5.90;99.90
47350;DHT22;33088;51.982;5.872;2023-02-10T16:24:22;6.00;99.90
47350;DHT22;33088;51.982;5.872;2023-02-10T16:26:49;5.90;99.90
47350;DHT22;33088;51.982;5.872;2023-02-10T16:29:23;6.00;99.90
47350;DHT22;33088;51.982;5.872;2023-02-10T16:31:50;5.90;99.90
47350;DHT22;33088;51.982;5.872;2023-02-10T16:34:16;5.90;99.90
47350;DHT22;33088;51.982;5.872;2023-02-10T16:36:43;5.90;99.90
47350;DHT22;33088;51.982;5.872;2023-02-10T16:39:16;5.90;99.90
47350;DHT22;33088;51.982;5.872;2023-02-10T16:41:44;5.90;99.90
47350;DHT22;33088;51.982;5.872;2023-02-10T16:44:09;5.80;99.90
47350;DHT22;33088;51.982;5.872;2023-02-10T16:46:35;5.80;99.90
47350;DHT22;33088;51.982;5.872;2023-02-10T16:49:02;5.80;99.90
47350;DHT22;33088;51.982;5.872;2023-02-10T16:51:27;5.80;99.90
47350;DHT22;33088;51.982;5.872;2023-02-10T16:53:53;5.80;99.90
47350;DHT22;33088;51.982;5.872;2023-02-10T16:56:21;5.80;99.90
47350;DHT22;33088;51.982;5.872;2023-02-10T16:58:47;5.80;99.90
47350;DHT22;33088;51.982;5.872;2023-02-10T17:01:13;5.80;99.90
47350;DHT22;33088;51.982;5.872;2023-02-10T17:03:39;5.80;99.90
47350;DHT22;33088;51.982;5.872;2023-02-10T17:06:05;5.80;99.90
47350;DHT22;33088;51.982;5.872;2023-02-10T17:08:31;5.80;99.90
47350;DHT22;33088;51.982;5.872;2023-02-10T17:10:57;5.80;99.90
47350;DHT22;33088;51.982;5.872;2023-02-10T17:13:23;5.70;99.90
47350;DHT22;33088;51.982;5.872;2023-02-10T17:15:49;5.80;99.90
47350;DHT22;33088;51.982;5.872;2023-02-10T17:18:16;5.70;99.90
47350;DHT22;33088;51.982;5.872;2023-02-10T17:20:42;6.00;99.90
47350;DHT22;33088;51.982;5.872;2023-02-10T17:23:07;5.70;99.90
47350;DHT22;33088;51.982;5.872;2023-02-10T17:25:33;5.70;99.90
47350;DHT22;33088;51.982;5.872;2023-02-10T17:28:03;5.70;99.90
47350;DHT22;33088;51.982;5.872;2023-02-10T17:30:33;5.70;99.90
47350;DHT22;33088;51.982;5.872;2023-02-10T17:33:02;5.60;99.90
47350;DHT22;33088;51.982;5.872;2023-02-10T17:35:27;5.60;99.90
47350;DHT22;33088;51.982;5.872;2023-02-10T17:37:55;5.70;99.90
47350;DHT22;33088;51.982;5.872;2023-02-10T17:40:42;5.70;99.90
47350;DHT22;33088;51.982;5.872;2023-02-10T17:43:08;5.60;99.90
47350;DHT22;33088;51.982;5.872;2023-02-10T17:45:36;5.60;99.90
47350;DHT22;33088;51.982;5.872;2023-02-10T17:48:03;5.60;99.90
47350;DHT22;33088;51.982;5.872;2023-02-10T17:50:32;5.60;99.90
47350;DHT22;33088;51.982;5.872;2023-02-10T17:52:58;5.60;99.90